Meteorological Messages

Meteorological Service

FAGG50 UGTB 290430

Local validity Period 29 May 10:00 : 29 May 16:00
GG UGTBMAIL
290430 UGTBYMYX
FAGG50 UGTB 290430
UGGG GAMET VALID 290600/291200 UGTB-
UGGG TBILISI FIR BLW FL150
SECN I
SIG CLD: 09/12 W OF E04430 ISOL CB 4000/18000FT AGL
SECN II
PSYS: NIL
WIND/T: 2000FT VRB/05KT PS21
5000FT VRB/05KT PS18
10000FT A1 250/12KT PS06
10000FT A2 A3 A4 VRB/05KT PS05
15000FT 230/15KT MS05
CLD: SCT AC 10000/12000FT AGL
FZLVL: 12000FT AMSL
MNM QNH: 1011HPA
VA:NIL=

FCGG41 UGTB 290400

Local validity Period 29 May 09:00 : 29 May 15:00
GG UGTBMAIL
290404 UGTBYMYX
FCGG41 UGTB 290400
TAF UGAM 290400Z 2905/2911 VRB02KT 9999 BKN080=
TAF UGMS 290400Z 2905/2911 VRB02KT CAVOK TEMPO 2909/2911 SCT050CB=

FTGG31 UGTB 282300

Local validity Period 29 May 04:00 : 30 May 04:00
GG UGTBMAIL
282304 UGTBYMYX
FTGG31 UGTB 282300
TAF UGKO 282300Z 2900/2924 09008KT 9999 SCT100 TX31/2912Z TN14/2902Z
TEMPO 2900/2904 3000 TSRA BKN030CB BECMG 2907/2910 CAVOK BECMG
2910/2913 27012KT TEMPO 2917/2924 VRB02KT=
TAF UGSB 282300Z 2900/2924 VRB02KT 9999 SCT150 TX24/2912Z TN15/2902Z
PROB40 TEMPO 2900/2903 TSRA SCT030CB TEMPO 2900/2905 12010KT
BECMG 2905/2906 25010KT CAVOK BECMG 2913/2914 VRB02KT=
TAF UGTB 282300Z 2900/2924 10007KT CAVOK TX29/2912Z TN16/2902Z TEMPO
2915/2921 SCT050CB=

WSGG31 UGTB 302120

Local validity Period 31 May 01:00 : 31 May 03:00
FF UGTBMAIL
302121 UGTBYMYX
WSGG31 UGTB 302120
UGGG SIGMET 2 VALID 302122/302330 UGTB-
UGGG TBILISI FIR FRQ TS OBS E OF E04340 TOP FL370 STNR NC=